Terminal Aerodrome Forecast
Issued by NWS

Home | Current Version | Previous Version | Text Only | Print | Product List | Glossary On
Versions: 1 2 3 4 5 6 7 8 9 10 11 12
000
FTUS46 KMFR 292300
TAFLMT
TAF
KLMT 292320Z 3000/3024 32010KT P6SM VCTS SCT060CB SCT120
     FM300600 VRB03KT P6SM SCT120
     FM302300 32010KT P6SM VCTS BKN060CB BKN200=

USA.gov is the U.S. government's official web portal to all federal, state and local government web resources and services.